createdAt,value
2019-01-14T00:00:45.468Z,4.89
2019-01-14T00:03:14.633Z,4.79
2019-01-14T00:05:43.728Z,4.72
2019-01-14T00:08:12.813Z,4.64
2019-01-14T00:10:41.913Z,4.63
2019-01-14T00:13:10.987Z,4.53
2019-01-14T00:15:40.090Z,4.60
2019-01-14T00:18:09.169Z,4.68
2019-01-14T00:20:38.276Z,4.63
2019-01-14T00:23:07.348Z,4.66
2019-01-14T00:25:36.447Z,4.66
2019-01-14T00:28:05.519Z,4.68
2019-01-14T00:30:34.614Z,4.73
2019-01-14T00:33:03.714Z,4.70
2019-01-14T00:35:32.841Z,4.74
2019-01-14T00:38:01.921Z,4.80
2019-01-14T00:40:31.014Z,4.81
2019-01-14T00:43:00.166Z,4.75
2019-01-14T00:45:29.265Z,4.77
2019-01-14T00:47:58.357Z,4.82
2019-01-14T00:50:27.449Z,4.80
2019-01-14T00:52:56.525Z,4.82
2019-01-14T00:55:25.627Z,4.79
2019-01-14T00:57:54.694Z,4.75
2019-01-14T01:00:24.761Z,4.72
2019-01-14T01:02:53.947Z,4.58
2019-01-14T01:05:23.055Z,4.64
2019-01-14T01:07:52.328Z,4.69
2019-01-14T01:10:21.418Z,4.66
2019-01-14T01:12:50.677Z,4.71
2019-01-14T01:15:19.782Z,4.78
2019-01-14T01:17:48.862Z,4.75
2019-01-14T01:20:20.253Z,4.71
2019-01-14T01:22:50.042Z,4.69
2019-01-14T01:25:19.169Z,4.70
2019-01-14T01:27:48.266Z,4.73
2019-01-14T01:30:18.598Z,4.75
2019-01-14T01:32:48.026Z,4.74
2019-01-14T01:35:17.925Z,4.77
2019-01-14T01:37:47.080Z,4.66
2019-01-14T01:40:20.533Z,4.57
2019-01-14T01:42:49.726Z,4.57
2019-01-14T01:45:19.026Z,4.50
2019-01-14T01:47:48.283Z,4.55
2019-01-14T01:50:18.630Z,4.60
2019-01-14T01:52:47.730Z,4.67
2019-01-14T01:55:16.910Z,4.63
2019-01-14T01:57:46.035Z,4.71
2019-01-14T02:00:20.285Z,4.77
2019-01-14T02:02:49.557Z,4.75
2019-01-14T02:05:18.952Z,4.68
2019-01-14T02:07:48.122Z,4.74
2019-01-14T02:10:19.426Z,4.84
2019-01-14T02:12:48.621Z,4.81
2019-01-14T02:15:18.057Z,4.77
2019-01-14T02:17:47.753Z,4.78
2019-01-14T02:20:17.873Z,4.86
2019-01-14T02:22:46.978Z,4.84
2019-01-14T02:25:17.128Z,4.80
2019-01-14T02:27:46.250Z,4.80
2019-01-14T02:30:17.825Z,4.83
2019-01-14T02:32:46.925Z,4.78
2019-01-14T02:35:16.122Z,4.68
2019-01-14T02:37:45.230Z,4.63
2019-01-14T02:40:16.792Z,4.61
2019-01-14T02:42:45.893Z,4.63
2019-01-14T02:45:15.417Z,4.65
2019-01-14T02:47:44.530Z,4.67
2019-01-14T02:50:14.122Z,4.63
2019-01-14T02:52:43.199Z,4.62
2019-01-14T02:55:12.536Z,4.59
2019-01-14T02:57:41.625Z,4.66
2019-01-14T03:00:19.722Z,4.71
2019-01-14T03:02:48.831Z,4.66
2019-01-14T03:05:17.905Z,4.77
2019-01-14T03:07:47.437Z,4.84
2019-01-14T03:10:16.638Z,4.78
2019-01-14T03:12:45.733Z,4.77
2019-01-14T03:15:15.685Z,4.72
2019-01-14T03:17:44.781Z,4.72
2019-01-14T03:20:14.743Z,4.67
2019-01-14T03:22:44.053Z,4.75
2019-01-14T03:25:13.822Z,4.76
2019-01-14T03:27:42.918Z,4.71
2019-01-14T03:30:14.272Z,4.74
2019-01-14T03:32:43.398Z,4.63
2019-01-14T03:35:12.512Z,4.65
2019-01-14T03:37:41.639Z,4.55
2019-01-14T03:40:13.015Z,4.53
2019-01-14T03:42:42.105Z,4.45
2019-01-14T03:45:11.881Z,4.43
2019-01-14T03:47:40.969Z,4.38
2019-01-14T03:50:13.676Z,4.31
2019-01-14T03:52:42.759Z,4.24
2019-01-14T03:55:11.859Z,4.11
2019-01-14T03:57:40.945Z,4.06
2019-01-14T04:00:12.237Z,4.06
2019-01-14T04:02:41.310Z,4.15
2019-01-14T04:05:10.766Z,4.11
2019-01-14T04:07:39.942Z,4.18
2019-01-14T04:10:11.716Z,4.24
2019-01-14T04:12:40.794Z,4.26
2019-01-14T04:15:11.174Z,4.29
2019-01-14T04:17:40.255Z,4.32
2019-01-14T04:20:10.539Z,4.31
2019-01-14T04:22:39.614Z,4.32
2019-01-14T04:25:09.426Z,4.37
2019-01-14T04:27:38.517Z,4.28
2019-01-14T04:30:11.115Z,4.28
2019-01-14T04:32:40.203Z,4.31
2019-01-14T04:35:09.842Z,4.28
2019-01-14T04:37:38.913Z,4.32
2019-01-14T04:40:08.768Z,4.46
2019-01-14T04:42:37.848Z,4.39
2019-01-14T04:45:07.969Z,4.42
2019-01-14T04:47:37.053Z,4.43
2019-01-14T04:50:08.166Z,4.34
2019-01-14T04:52:37.262Z,4.39
2019-01-14T04:55:06.686Z,4.38
2019-01-14T04:57:35.821Z,4.36
2019-01-14T05:00:07.130Z,4.33
2019-01-14T05:02:36.214Z,4.31
2019-01-14T05:05:05.803Z,4.27
2019-01-14T05:07:34.888Z,4.34
2019-01-14T05:10:04.673Z,4.39
2019-01-14T05:12:33.749Z,4.39
2019-01-14T05:15:02.876Z,4.41
2019-01-14T05:17:31.954Z,4.26
2019-01-14T05:20:01.030Z,4.32
2019-01-14T05:22:30.126Z,4.34
2019-01-14T05:24:59.208Z,4.20
2019-01-14T05:27:28.305Z,4.21
2019-01-14T05:29:57.395Z,4.14
2019-01-14T05:32:26.495Z,4.13
2019-01-14T05:34:55.610Z,4.00
2019-01-14T05:37:24.701Z,3.87
2019-01-14T05:39:53.770Z,3.79
2019-01-14T05:42:22.873Z,3.74
2019-01-14T05:44:51.958Z,3.72
2019-01-14T05:47:21.064Z,3.77
2019-01-14T05:49:50.144Z,3.68
2019-01-14T05:52:19.250Z,3.63
2019-01-14T05:54:48.347Z,3.61
2019-01-14T05:57:17.469Z,3.64
2019-01-14T05:59:46.550Z,3.71
2019-01-14T06:02:16.334Z,3.66
2019-01-14T06:04:45.414Z,3.56
2019-01-14T06:07:14.525Z,3.56
2019-01-14T06:09:43.669Z,3.49
2019-01-14T06:12:12.709Z,3.56
2019-01-14T06:14:41.783Z,3.46
2019-01-14T06:17:10.879Z,3.47
2019-01-14T06:19:40.159Z,3.47
2019-01-14T06:22:09.269Z,3.39
2019-01-14T06:24:38.351Z,3.33
2019-01-14T06:27:07.431Z,3.28
2019-01-14T06:29:36.534Z,3.33
2019-01-14T06:32:05.616Z,3.25
2019-01-14T06:34:34.734Z,3.20
2019-01-14T06:37:03.823Z,3.25
2019-01-14T06:39:32.931Z,3.29
2019-01-14T06:42:02.006Z,3.24
2019-01-14T06:44:31.110Z,3.23
2019-01-14T06:47:00.193Z,3.27
2019-01-14T06:49:29.300Z,3.16
2019-01-14T06:51:58.385Z,3.19
2019-01-14T06:54:27.496Z,3.16
2019-01-14T06:56:56.578Z,3.28
2019-01-14T06:59:26.001Z,3.23
2019-01-14T07:01:55.087Z,3.20
2019-01-14T07:04:24.195Z,3.13
2019-01-14T07:06:53.276Z,3.16
2019-01-14T07:09:22.375Z,3.24
2019-01-14T07:11:51.844Z,3.14
2019-01-14T07:14:20.957Z,3.19
2019-01-14T07:16:50.040Z,3.18
2019-01-14T07:19:19.143Z,3.22
2019-01-14T07:21:48.232Z,3.18
2019-01-14T07:24:17.339Z,3.18
2019-01-14T07:26:46.419Z,3.26
2019-01-14T07:29:15.531Z,3.12
2019-01-14T07:31:44.610Z,3.16
2019-01-14T07:34:13.719Z,3.19
2019-01-14T07:36:42.815Z,3.20
2019-01-14T07:39:11.895Z,3.22
2019-01-14T07:41:40.995Z,3.16
2019-01-14T07:44:10.077Z,3.24
2019-01-14T07:46:39.191Z,3.28
2019-01-14T07:49:08.286Z,3.27
2019-01-14T07:51:37.394Z,3.30
2019-01-14T07:54:06.497Z,3.38
2019-01-14T07:56:35.775Z,3.35
2019-01-14T07:59:04.850Z,3.41
2019-01-14T08:01:33.966Z,3.36
2019-01-14T08:04:03.101Z,3.42
2019-01-14T08:06:32.151Z,3.40
2019-01-14T08:09:01.228Z,3.43
2019-01-14T08:11:30.348Z,3.44
2019-01-14T08:13:59.427Z,3.44
2019-01-14T08:16:28.531Z,3.38
2019-01-14T08:18:57.614Z,3.42
2019-01-14T08:21:26.715Z,3.35
2019-01-14T08:23:55.803Z,3.33
2019-01-14T08:26:24.906Z,3.41
2019-01-14T08:28:53.989Z,3.54
2019-01-14T08:31:23.095Z,3.49
2019-01-14T08:33:52.196Z,3.47
2019-01-14T08:36:21.300Z,3.45
2019-01-14T08:38:50.392Z,3.41
2019-01-14T08:41:20.162Z,3.55
2019-01-14T08:43:52.850Z,3.55
2019-01-14T08:46:21.951Z,3.55
2019-01-14T08:48:51.107Z,3.49
2019-01-14T08:51:20.210Z,3.46
2019-01-14T08:53:49.296Z,3.43
2019-01-14T08:56:18.402Z,3.54
2019-01-14T08:58:47.482Z,3.57
2019-01-14T09:01:16.566Z,3.78
2019-01-14T09:03:45.671Z,3.62
2019-01-14T09:06:14.746Z,3.62
2019-01-14T09:08:43.848Z,3.75
2019-01-14T09:11:13.017Z,3.76
2019-01-14T09:13:42.123Z,3.77
2019-01-14T09:16:11.215Z,3.80
2019-01-14T09:18:40.310Z,3.74
2019-01-14T09:21:09.387Z,3.75
2019-01-14T09:23:38.495Z,3.80
2019-01-14T09:26:07.574Z,3.70
2019-01-14T09:28:36.691Z,3.87
2019-01-14T09:31:05.867Z,3.95
2019-01-14T09:33:34.987Z,3.88
2019-01-14T09:36:04.294Z,3.81
2019-01-14T09:38:36.035Z,3.99
2019-01-14T09:41:04.498Z,3.98
2019-01-14T09:43:33.605Z,3.98
2019-01-14T09:46:02.701Z,3.92
2019-01-14T09:48:31.794Z,3.90
2019-01-14T09:51:00.886Z,3.86
2019-01-14T09:53:29.990Z,3.86
2019-01-14T09:55:59.074Z,3.97
2019-01-14T09:58:28.174Z,3.90
2019-01-14T10:00:57.259Z,3.82
2019-01-14T10:03:26.359Z,3.99
2019-01-14T10:05:55.441Z,3.95
2019-01-14T10:08:24.545Z,4.02
2019-01-14T10:10:53.628Z,3.98
2019-01-14T10:13:22.734Z,3.95
2019-01-14T10:15:51.822Z,4.05
2019-01-14T10:18:20.930Z,4.02
2019-01-14T10:20:49.998Z,4.14
2019-01-14T10:23:19.097Z,3.93
2019-01-14T10:25:48.245Z,3.31
2019-01-14T10:28:17.350Z,2.65
2019-01-14T10:30:46.436Z,2.40
2019-01-14T10:33:15.545Z,2.31
2019-01-14T10:35:44.640Z,2.15
2019-01-14T10:38:13.734Z,1.98
2019-01-14T10:40:42.817Z,2.07
2019-01-14T10:43:11.900Z,2.15
2019-01-14T10:45:41.000Z,2.03
2019-01-14T10:48:10.070Z,2.23
2019-01-14T10:50:39.161Z,2.45
2019-01-14T10:53:08.242Z,2.65
2019-01-14T10:55:37.338Z,2.83
2019-01-14T10:58:06.422Z,2.90
2019-01-14T11:00:35.529Z,2.84
2019-01-14T11:03:05.086Z,3.22
2019-01-14T11:05:34.178Z,3.66
2019-01-14T11:08:03.258Z,4.32
2019-01-14T11:10:32.349Z,4.53
2019-01-14T11:13:01.430Z,4.20
2019-01-14T11:15:30.527Z,3.98
2019-01-14T11:17:59.605Z,4.09
2019-01-14T11:20:32.398Z,4.02
2019-01-14T11:23:02.108Z,3.64
2019-01-14T11:25:31.192Z,3.60
2019-01-14T11:28:00.283Z,3.44
2019-01-14T11:30:31.106Z,3.37
2019-01-14T11:33:00.192Z,3.38
2019-01-14T11:35:29.419Z,3.41
2019-01-14T11:37:58.517Z,3.61
2019-01-14T11:40:32.819Z,3.42
2019-01-14T11:43:01.897Z,4.05
2019-01-14T11:45:31.002Z,3.96
2019-01-14T11:48:00.081Z,3.86
2019-01-14T11:50:29.179Z,3.73
2019-01-14T11:52:58.249Z,3.38
2019-01-14T11:55:27.362Z,3.33
2019-01-14T11:57:56.446Z,3.42
2019-01-14T12:00:26.445Z,3.33
2019-01-14T12:02:55.640Z,3.33
2019-01-14T12:05:24.744Z,3.22
2019-01-14T12:07:53.817Z,3.39
2019-01-14T12:10:22.917Z,3.40
2019-01-14T12:12:52.003Z,3.47
2019-01-14T12:15:23.336Z,3.45
2019-01-14T12:17:52.405Z,3.35
2019-01-14T12:20:21.510Z,3.52
2019-01-14T12:22:50.622Z,3.41
2019-01-14T12:25:20.014Z,4.19
2019-01-14T12:27:49.141Z,4.54
2019-01-14T12:30:30.552Z,4.47
2019-01-14T12:33:00.629Z,4.17
2019-01-14T12:35:29.905Z,3.93
2019-01-14T12:37:59.011Z,4.16
2019-01-14T12:40:28.095Z,5.05
2019-01-14T12:42:57.202Z,8.21
2019-01-14T12:45:26.278Z,8.06
2019-01-14T12:47:55.382Z,9.21
2019-01-14T12:50:24.570Z,8.15
2019-01-14T12:52:53.953Z,7.64
2019-01-14T12:55:23.030Z,7.80
2019-01-14T12:57:52.121Z,6.53
2019-01-14T13:00:23.324Z,5.19
2019-01-14T13:02:52.431Z,5.13
2019-01-14T13:05:21.959Z,4.58
2019-01-14T13:07:51.067Z,4.50
2019-01-14T13:10:20.137Z,4.19
2019-01-14T13:12:49.238Z,3.62
2019-01-14T13:15:20.513Z,3.04
2019-01-14T13:17:49.802Z,2.57
2019-01-14T13:20:19.198Z,2.21
2019-01-14T13:22:48.290Z,2.09
2019-01-14T13:25:17.377Z,2.09
2019-01-14T13:27:46.478Z,2.00
2019-01-14T13:30:20.923Z,2.17
2019-01-14T13:32:50.039Z,2.10
2019-01-14T13:35:19.122Z,2.39
2019-01-14T13:37:48.242Z,2.20
2019-01-14T13:40:17.330Z,2.24
2019-01-14T13:42:46.431Z,2.56
2019-01-14T13:45:17.470Z,2.58
2019-01-14T13:47:46.594Z,3.07
2019-01-14T13:50:17.899Z,2.66
2019-01-14T13:52:47.009Z,2.76
2019-01-14T13:55:16.389Z,2.72
2019-01-14T13:57:45.490Z,2.53
2019-01-14T14:00:17.497Z,2.26
2019-01-14T14:02:46.594Z,1.97
2019-01-14T14:05:15.682Z,1.92
2019-01-14T14:07:44.777Z,1.98
2019-01-14T14:10:17.171Z,2.16
2019-01-14T14:12:46.275Z,2.77
2019-01-14T14:15:15.823Z,3.74
2019-01-14T14:17:44.922Z,4.32
2019-01-14T14:20:14.853Z,3.48
2019-01-14T14:22:43.948Z,2.71
2019-01-14T14:25:13.041Z,2.31
2019-01-14T14:27:42.114Z,2.37
2019-01-14T14:30:37.289Z,2.20
2019-01-14T14:33:06.442Z,2.30
2019-01-14T14:35:35.550Z,2.07
2019-01-14T14:38:05.678Z,2.03
2019-01-14T14:40:34.793Z,2.12
2019-01-14T14:43:03.860Z,2.13
2019-01-14T14:45:32.957Z,2.32
2019-01-14T14:48:02.034Z,2.31
2019-01-14T14:50:31.138Z,2.39
2019-01-14T14:53:00.224Z,2.94
2019-01-14T14:55:29.341Z,3.71
2019-01-14T14:57:58.431Z,4.89
2019-01-14T15:00:27.531Z,5.18
2019-01-14T15:02:56.606Z,3.85
2019-01-14T15:05:25.706Z,2.80
2019-01-14T15:07:54.803Z,2.55
2019-01-14T15:10:23.972Z,2.50
2019-01-14T15:12:53.046Z,2.28
2019-01-14T15:15:23.882Z,2.31
2019-01-14T15:17:52.969Z,2.26
2019-01-14T15:20:23.490Z,2.19
2019-01-14T15:22:52.584Z,2.18
2019-01-14T15:25:21.678Z,2.19
2019-01-14T15:27:50.778Z,2.16
2019-01-14T15:30:28.147Z,2.00
2019-01-14T15:32:57.221Z,1.60
2019-01-14T15:35:26.343Z,1.41
2019-01-14T15:37:55.422Z,1.30
2019-01-14T15:40:25.095Z,1.34
2019-01-14T15:42:54.176Z,1.26
2019-01-14T15:45:24.687Z,1.28
2019-01-14T15:47:53.887Z,1.10
2019-01-14T15:50:22.981Z,0.87
2019-01-14T15:52:52.056Z,0.83
2019-01-14T15:55:23.619Z,0.70
2019-01-14T15:57:52.717Z,0.76
2019-01-14T16:00:21.813Z,0.72
2019-01-14T16:02:50.892Z,0.58
2019-01-14T16:05:20.034Z,0.57
2019-01-14T16:07:49.115Z,0.42
2019-01-14T16:10:20.348Z,0.47
2019-01-14T16:12:49.417Z,0.50
2019-01-14T16:15:18.579Z,0.45
2019-01-14T16:17:47.674Z,0.39
2019-01-14T16:20:18.489Z,0.42
2019-01-14T16:22:47.766Z,0.31
2019-01-14T16:25:16.869Z,0.32
2019-01-14T16:27:45.949Z,0.32
2019-01-14T16:30:40.029Z,0.40
2019-01-14T16:33:09.128Z,0.58
2019-01-14T16:35:38.239Z,0.62
2019-01-14T16:38:07.390Z,0.55
2019-01-14T16:40:36.499Z,0.53
2019-01-14T16:43:05.577Z,0.62
2019-01-14T16:45:34.796Z,0.72
2019-01-14T16:48:03.870Z,0.79
2019-01-14T16:50:32.986Z,0.83
2019-01-14T16:53:02.066Z,0.75
2019-01-14T16:55:37.285Z,0.62
2019-01-14T16:58:06.378Z,0.52
2019-01-14T17:00:35.475Z,0.58
2019-01-14T17:03:04.591Z,0.56
2019-01-14T17:05:33.675Z,0.50
2019-01-14T17:08:02.782Z,0.39
2019-01-14T17:10:31.874Z,0.58
2019-01-14T17:13:00.969Z,0.71
2019-01-14T17:15:30.067Z,0.80
2019-01-14T17:17:59.168Z,1.00
2019-01-14T17:20:28.287Z,1.01
2019-01-14T17:22:57.391Z,1.10
2019-01-14T17:25:26.468Z,0.98
2019-01-14T17:27:55.576Z,1.02
2019-01-14T17:30:24.655Z,0.98
2019-01-14T17:32:53.768Z,1.00
2019-01-14T17:35:22.879Z,1.01
2019-01-14T17:37:51.977Z,1.02
2019-01-14T17:40:21.138Z,0.96
2019-01-14T17:42:50.252Z,0.89
2019-01-14T17:45:19.339Z,0.91
2019-01-14T17:47:48.540Z,0.96
2019-01-14T17:50:19.227Z,1.07
2019-01-14T17:52:48.639Z,1.15
2019-01-14T17:55:17.729Z,1.10
2019-01-14T17:57:46.846Z,1.13
2019-01-14T18:00:20.823Z,1.17
2019-01-14T18:02:49.928Z,1.27
2019-01-14T18:05:19.008Z,1.23
2019-01-14T18:07:48.164Z,1.28
2019-01-14T18:10:18.976Z,1.37
2019-01-14T18:12:48.178Z,1.34
2019-01-14T18:15:17.278Z,1.33
2019-01-14T18:17:46.383Z,1.26
2019-01-14T18:20:17.362Z,1.34
2019-01-14T18:22:46.513Z,1.28
2019-01-14T18:25:16.491Z,1.30
2019-01-14T18:27:45.986Z,1.29
2019-01-14T18:30:20.959Z,1.38
2019-01-14T18:32:50.166Z,1.26
2019-01-14T18:35:19.263Z,1.36
2019-01-14T18:37:48.351Z,1.26
2019-01-14T18:40:18.991Z,1.32
2019-01-14T18:42:48.321Z,1.39
2019-01-14T18:45:18.951Z,1.51
2019-01-14T18:47:48.250Z,1.30
2019-01-14T18:50:19.524Z,1.20
2019-01-14T18:52:48.604Z,1.24
2019-01-14T18:55:17.695Z,1.27
2019-01-14T18:57:46.772Z,1.44
2019-01-14T19:00:21.365Z,1.25
2019-01-14T19:02:50.636Z,1.30
2019-01-14T19:05:20.340Z,1.25
2019-01-14T19:07:49.603Z,1.17
2019-01-14T19:10:18.707Z,1.27
2019-01-14T19:12:47.781Z,1.32
2019-01-14T19:15:18.429Z,1.28
2019-01-14T19:17:47.565Z,1.22
2019-01-14T19:20:21.833Z,1.21
2019-01-14T19:22:50.904Z,1.16
2019-01-14T19:25:20.005Z,1.19
2019-01-14T19:27:49.073Z,1.30
2019-01-14T19:30:19.018Z,1.34
2019-01-14T19:32:48.084Z,1.34
2019-01-14T19:35:17.215Z,1.35
2019-01-14T19:37:46.302Z,1.40
2019-01-14T19:40:17.006Z,1.22
2019-01-14T19:42:46.186Z,1.19
2019-01-14T19:45:16.387Z,1.24
2019-01-14T19:47:45.491Z,1.30
2019-01-14T19:50:17.192Z,1.36
2019-01-14T19:52:46.262Z,1.38
2019-01-14T19:55:15.358Z,1.26
2019-01-14T19:57:44.641Z,1.23
2019-01-14T20:00:16.918Z,1.16
2019-01-14T20:02:46.002Z,1.16
2019-01-14T20:05:15.103Z,1.17
2019-01-14T20:07:44.186Z,1.23
2019-01-14T20:10:14.122Z,1.22
2019-01-14T20:12:43.210Z,1.21
2019-01-14T20:15:13.920Z,1.34
2019-01-14T20:17:43.006Z,1.27
2019-01-14T20:20:12.159Z,1.21
2019-01-14T20:22:41.336Z,1.19
2019-01-14T20:25:11.473Z,1.19
2019-01-14T20:27:41.444Z,1.26
2019-01-14T20:30:14.072Z,1.24
2019-01-14T20:32:43.145Z,1.25
2019-01-14T20:35:12.261Z,1.21
2019-01-14T20:37:41.346Z,1.22
2019-01-14T20:40:11.154Z,1.23
2019-01-14T20:42:40.235Z,1.25
2019-01-14T20:45:09.581Z,1.23
2019-01-14T20:47:38.653Z,1.29
2019-01-14T20:50:09.240Z,1.33
2019-01-14T20:52:39.060Z,1.39
2019-01-14T20:55:08.420Z,1.23
2019-01-14T20:57:37.502Z,1.31
2019-01-14T21:00:11.443Z,1.22
2019-01-14T21:02:40.517Z,1.37
2019-01-14T21:05:09.630Z,1.35
2019-01-14T21:07:38.720Z,1.39
2019-01-14T21:10:08.843Z,1.34
2019-01-14T21:12:37.960Z,1.26
2019-01-14T21:15:07.662Z,1.26
2019-01-14T21:17:36.733Z,1.19
2019-01-14T21:20:08.143Z,1.23
2019-01-14T21:22:37.226Z,1.15
2019-01-14T21:25:06.906Z,1.21
2019-01-14T21:27:35.987Z,1.20
2019-01-14T21:30:06.567Z,1.18
2019-01-14T21:32:35.649Z,1.16
2019-01-14T21:35:05.047Z,1.18
2019-01-14T21:37:34.142Z,1.34
2019-01-14T21:40:03.235Z,1.36
2019-01-14T21:42:32.342Z,1.24
2019-01-14T21:45:01.431Z,1.24
2019-01-14T21:47:32.735Z,1.28
2019-01-14T21:50:01.320Z,1.23
2019-01-14T21:52:30.415Z,1.23
2019-01-14T21:54:59.500Z,1.22
2019-01-14T21:57:28.601Z,1.24
2019-01-14T21:59:57.681Z,1.21
2019-01-14T22:02:26.782Z,1.28
2019-01-14T22:04:55.859Z,1.21
2019-01-14T22:07:24.962Z,1.20
2019-01-14T22:09:54.035Z,1.21
2019-01-14T22:12:23.124Z,1.20
2019-01-14T22:14:52.197Z,1.34
2019-01-14T22:17:21.290Z,1.20
2019-01-14T22:19:50.366Z,1.22
2019-01-14T22:22:19.471Z,1.19
2019-01-14T22:24:48.550Z,1.24
2019-01-14T22:27:17.647Z,1.19
2019-01-14T22:29:46.729Z,1.22
2019-01-14T22:32:15.837Z,1.19
2019-01-14T22:34:44.929Z,1.18
2019-01-14T22:37:14.029Z,1.28
2019-01-14T22:39:43.105Z,1.12
2019-01-14T22:42:12.198Z,1.06
2019-01-14T22:44:41.275Z,1.06
2019-01-14T22:47:10.371Z,1.05
2019-01-14T22:49:39.464Z,1.03
2019-01-14T22:52:08.565Z,1.08
2019-01-14T22:54:37.638Z,1.10
2019-01-14T22:57:06.729Z,1.07
2019-01-14T22:59:35.806Z,1.08
2019-01-14T23:02:04.965Z,1.10
2019-01-14T23:04:34.063Z,1.07
2019-01-14T23:07:03.138Z,1.03
2019-01-14T23:09:32.236Z,1.02
2019-01-14T23:12:01.305Z,1.09
2019-01-14T23:14:30.400Z,1.09
2019-01-14T23:16:59.482Z,1.02
2019-01-14T23:19:28.589Z,0.97
2019-01-14T23:21:57.666Z,0.92
2019-01-14T23:24:26.763Z,0.93
2019-01-14T23:26:55.843Z,0.98
2019-01-14T23:29:24.959Z,1.00
2019-01-14T23:31:54.032Z,1.02
2019-01-14T23:34:23.144Z,1.02
2019-01-14T23:36:52.225Z,0.97
2019-01-14T23:39:21.322Z,0.98
2019-01-14T23:41:50.410Z,1.02
2019-01-14T23:44:19.505Z,0.98
2019-01-14T23:46:48.598Z,1.00
2019-01-14T23:49:17.685Z,0.98
2019-01-14T23:51:46.754Z,1.02
2019-01-14T23:54:15.938Z,1.05
2019-01-14T23:56:45.012Z,0.99
2019-01-14T23:59:14.117Z,0.98
